Bookmark and Share
Track history (hours):
 

Drifting buoy 21986

Last reported at 2013-Jun-01 22:10 UTC. Time now 2014-Apr-24 13:49 UTC.
Position N 38°20' W 142°17'.
Warning: this ship's position is months out of date.

Barometer 850.0 mb

NotesDate/timePositionNaut miles runAvg speedWind from/ knotsBaromVisibWave heightAir tempDewpointWater temp
2013-Jun-01 22:10N 38°20' W 142°17'2 2.2 850.0
2013-Jun-01 21:10N 38°19' W 142°19'1 0.6 1029.3
2013-Jun-01 20:10N 38°19' W 142°20'0 0.0 1029.6
2013-Jun-01 19:10N 38°19' W 142°20'1 0.6 1029.3
2013-Jun-01 18:10N 38°18' W 142°19'0 0.2 1029.1
2013-Jun-01 16:10N 38°18' W 142°20'0 0.1
2013-Jun-01 15:10N 38°18' W 142°19'0 0.1
2013-Jun-01 13:10N 38°18' W 142°20'1 0.9 1027.1
2013-Jun-01 12:10N 38°18' W 142°21'0 0.4 1027.0
2013-Jun-01 11:10N 38°18' W 142°21'2 1.7 1027.1
2013-Jun-01 10:10N 38°17' W 142°23'0 0.0 1027.4
2013-Jun-01 09:10N 38°17' W 142°23'2 0.8 1027.4
2013-Jun-01 07:10N 38°16' W 142°24'0 0.0 1027.2
2013-Jun-01 06:10N 38°16' W 142°24'0 0.0 1026.8
2013-Jun-01 05:10N 38°16' W 142°24'1 1.1 1026.3
2013-Jun-01 04:10N 38°15' W 142°25'0 0.0 1025.7
2013-Jun-01 03:10N 38°15' W 142°25'24 8.0 1025.5
2013-Jun-01 00:10N 37°55' W 142°42'3 0.1 1025.1
2013-May-30 03:10N 37°52' W 142°41'5 0.1
2013-May-28 19:10N 37°54' W 142°46'9 0.6
2013-May-28 05:00N 37°52' W 142°57'0 0.0
2013-May-28 04:00N 37°52' W 142°57'0 0.1
2013-May-28 03:10N 37°52' W 142°57'2 1.4
2013-May-28 01:50N 37°52' W 142°59'0 0.0
2013-May-28 01:00N 37°52' W 142°59'0 0.0
2013-May-28 00:10N 37°52' W 142°59'2 1.9
2013-May-27 23:10N 37°52' W 143°01'0 0.0
2013-May-27 21:10N 37°52' W 143°01'4 0.5
2013-May-27 14:10N 37°52' W 143°06'2 2.1
2013-May-27 13:10N 37°52' W 143°08'0 0.0
2013-May-27 12:00N 37°52' W 143°08'0 0.0
2013-May-27 11:00N 37°52' W 143°08'0 0.0
2013-May-27 10:00N 37°52' W 143°08'3 1.0
2013-May-27 07:10N 37°51' W 143°12'0 0.0
2013-May-27 06:10N 37°51' W 143°12'1 1.1
2013-May-27 05:10N 37°52' W 143°11'2 0.6
2013-May-27 02:10N 37°52' W 143°13'0 0.0
2013-May-27 01:00N 37°52' W 143°13'1 1.0
2013-May-27 00:10N 37°52' W 143°14'1 0.6
2013-May-26 23:10N 37°52' W 143°15'1 0.9
2013-May-26 21:50N 37°52' W 143°16'0 0.2
2013-May-26 21:10N 37°52' W 143°16'3 0.8
2013-May-26 18:10N 37°51' W 143°19'1 0.7
2013-May-26 16:10N 37°50' W 143°20'1 0.2
2013-May-26 13:00N 37°51' W 143°21'0 0.0
2013-May-26 12:10N 37°51' W 143°21'0 0.3
2013-May-26 11:10N 37°51' W 143°21'0 0.3
2013-May-26 10:00N 37°51' W 143°21'0 0.0
2013-May-26 09:10N 37°51' W 143°21'0 0.2
2013-May-26 08:10N 37°51' W 143°21'0 0.2
2013-May-26 07:10N 37°51' W 143°21'1 0.9
2013-May-26 06:10N 37°51' W 143°22'0 0.0
2013-May-26 05:10N 37°51' W 143°22'1 1.4
2013-May-26 04:30N 37°51' W 143°24'1 1.3
2013-May-26 04:00N 37°51' W 143°24'1 0.8 1024.8
2013-May-26 03:10N 37°51' W 143°24'1 0.5
2013-May-26 02:10N 37°51' W 143°24'2 0.5 1025.4
2013-May-25 23:10N 37°50' W 143°26'0 0.3 1026.9
2013-May-25 22:10N 37°50' W 143°26'0 0.0 1027.0
2013-May-25 21:10N 37°50' W 143°26'1 0.5
2013-May-25 20:10N 37°50' W 143°27'0 0.0 1027.8
2013-May-25 19:10N 37°50' W 143°27'0 0.2
2013-May-25 18:40N 37°50' W 143°27'0 0.2
2013-May-25 18:10N 37°50' W 143°27'1 0.9
2013-May-25 17:10N 37°51' W 143°26'0 0.3
2013-May-25 16:20N 37°50' W 143°26'0 0.2
2013-May-25 15:10N 37°51' W 143°27'1 0.6
2013-May-25 13:10N 37°51' W 143°28'0 0.1
2013-May-25 11:10N 37°51' W 143°28'0 0.1
2013-May-25 10:10N 37°52' W 143°28'1 0.8 1028.6
2013-May-25 09:10N 37°52' W 143°28'1 0.5
2013-May-25 08:10N 37°52' W 143°29'0 0.3
2013-May-25 07:10N 37°51' W 143°29'0 0.4
2013-May-25 06:10N 37°51' W 143°29'0 0.2
2013-May-25 05:10N 37°51' W 143°29'0 0.3 1029.1
2013-May-25 04:00N 37°51' W 143°29'0 0.5 1029.2
2013-May-25 03:10N 37°51' W 143°30'0 0.4 1029.4
2013-May-25 02:10N 37°52' W 143°30'0 0.0
2013-May-25 01:10N 37°52' W 143°30'0 0.2 1029.6
2013-May-25 00:10N 37°52' W 143°30'0 0.2
2013-May-24 23:10N 37°52' W 143°30'0 0.2 1030.5
2013-May-24 21:10N 37°52' W 143°31'0 0.3 1031.1
2013-May-24 20:10N 37°52' W 143°30'0 0.3
2013-May-24 19:10N 37°52' W 143°31'0 0.4
2013-May-24 18:10N 37°52' W 143°30'0 0.0
2013-May-24 17:00N 37°52' W 143°30'0 0.0 1031.0
2013-May-24 16:10N 37°52' W 143°30'0 0.2 1030.8
2013-May-24 15:10N 37°52' W 143°31'0 0.4 1030.6
2013-May-24 14:00N 37°52' W 143°30'0 0.2 1030.4
2013-May-24 13:10N 37°52' W 143°30'0 0.1
2013-May-24 12:10N 37°52' W 143°30'0 0.3 1030.7
2013-May-24 11:30N 37°53' W 143°30'0 0.1
2013-May-24 10:40N 37°53' W 143°31'0 0.3
2013-May-24 10:00N 37°53' W 143°30'0 0.3
2013-May-24 08:10N 37°52' W 143°30'1 0.7 1031.4
2013-May-24 07:00N 37°53' W 143°30'0 0.4 1031.6
2013-May-24 06:10N 37°52' W 143°30'0 0.1 1031.6
2013-May-24 05:10N 37°52' W 143°30'1 1.1
2013-May-24 04:10N 37°52' W 143°29'0 0.2 1030.8
2013-May-24 03:10N 37°52' W 143°28'1 0.6 1030.8
2013-May-24 01:10N 37°51' W 143°27'0 0.0 1031.3
2013-May-24 00:10N 37°51' W 143°27'0 0.3 1031.7
2013-May-23 23:00N 37°52' W 143°27'0 0.5 1032.1
2013-May-23 22:10N 37°52' W 143°27'1 0.6 1032.3
2013-May-23 21:00N 37°52' W 143°26'0 0.3 1032.3
2013-May-23 20:00N 37°53' W 143°26'0 0.3 1032.2
2013-May-23 19:00N 37°53' W 143°26'1 0.7 1031.9
2013-May-23 18:10N 37°53' W 143°26'1 0.4
2013-May-23 16:10N 37°52' W 143°25'0 0.4
2013-May-23 15:10N 37°52' W 143°24'0 0.2
2013-May-23 14:10N 37°52' W 143°24'0 0.4
2013-May-23 13:10N 37°52' W 143°24'0 0.5
2013-May-23 12:10N 37°53' W 143°23'1 0.5 1031.8
2013-May-23 10:50N 37°53' W 143°23'1 1.8
2013-May-23 10:00N 37°54' W 143°21'2 1.9
2013-May-23 09:10N 37°53' W 143°23'2 1.4
2013-May-23 08:00N 37°54' W 143°21'1 0.4
2013-May-23 06:00N 37°54' W 143°20'0 0.4 1032.5
2013-May-23 05:00N 37°54' W 143°20'0 0.6 1032.2
2013-May-23 04:10N 37°54' W 143°19'1 0.9
2013-May-23 03:10N 37°55' W 143°18'0 0.0 1031.7
2013-May-23 01:10N 37°54' W 143°18'1 0.4 1032.3
2013-May-22 23:10N 37°54' W 143°17'   1033.0

Dump ship's entire track history

sailing weather and tide predictions

Buoy 21986